sensor_id;sensor_type;location;lat;lon;timestamp;pressure;altitude;pressure_sealevel;temperature;humidity
70254;BME280;57649;42.968;1.608;2022-09-16T00:02:17;97132.22;;;18.47;100.00
70254;BME280;57649;42.968;1.608;2022-09-16T00:04:42;97139.81;;;18.57;100.00
70254;BME280;57649;42.968;1.608;2022-09-16T00:07:08;97136.34;;;18.68;100.00
70254;BME280;57649;42.968;1.608;2022-09-16T00:09:33;97134.78;;;18.60;100.00
70254;BME280;57649;42.968;1.608;2022-09-16T00:12:00;97143.34;;;18.39;100.00
70254;BME280;57649;42.968;1.608;2022-09-16T00:14:26;97139.75;;;18.26;100.00
70254;BME280;57649;42.968;1.608;2022-09-16T00:16:51;97142.91;;;18.42;100.00
70254;BME280;57649;42.968;1.608;2022-09-16T00:19:17;97147.06;;;18.44;100.00
70254;BME280;57649;42.968;1.608;2022-09-16T00:21:42;97140.13;;;18.49;100.00
70254;BME280;57649;42.968;1.608;2022-09-16T00:24:09;97151.47;;;18.39;100.00
70254;BME280;57649;42.968;1.608;2022-09-16T00:26:37;97147.16;;;18.13;100.00
70254;BME280;57649;42.968;1.608;2022-09-16T00:29:03;97143.63;;;18.12;100.00
70254;BME280;57649;42.968;1.608;2022-09-16T00:31:29;97145.34;;;18.06;100.00
70254;BME280;57649;42.968;1.608;2022-09-16T00:33:54;97140.31;;;18.10;100.00
70254;BME280;57649;42.968;1.608;2022-09-16T00:36:20;97137.31;;;18.18;100.00
70254;BME280;57649;42.968;1.608;2022-09-16T00:38:49;97137.91;;;18.20;100.00
70254;BME280;57649;42.968;1.608;2022-09-16T00:41:18;97135.75;;;18.29;100.00
70254;BME280;57649;42.968;1.608;2022-09-16T00:46:11;97146.22;;;18.44;100.00
70254;BME280;57649;42.968;1.608;2022-09-16T00:48:36;97136.66;;;18.41;100.00
70254;BME280;57649;42.968;1.608;2022-09-16T00:51:04;97141.88;;;18.43;100.00
70254;BME280;57649;42.968;1.608;2022-09-16T00:53:43;97143.50;;;18.44;100.00
70254;BME280;57649;42.968;1.608;2022-09-16T00:56:12;97142.00;;;18.48;100.00
70254;BME280;57649;42.968;1.608;2022-09-16T01:01:07;97144.19;;;18.39;100.00
70254;BME280;57649;42.968;1.608;2022-09-16T01:03:38;97139.59;;;18.40;100.00
70254;BME280;57649;42.968;1.608;2022-09-16T01:06:08;97142.75;;;18.37;100.00
70254;BME280;57649;42.968;1.608;2022-09-16T01:08:36;97133.63;;;18.31;100.00
70254;BME280;57649;42.968;1.608;2022-09-16T01:11:01;97136.34;;;18.31;100.00
70254;BME280;57649;42.968;1.608;2022-09-16T01:13:26;97137.19;;;18.32;100.00
70254;BME280;57649;42.968;1.608;2022-09-16T01:35:40;97118.13;;;18.20;100.00
70254;BME280;57649;42.968;1.608;2022-09-16T01:44:04;97123.00;;;18.30;100.00
70254;BME280;57649;42.968;1.608;2022-09-16T01:49:18;97120.31;;;18.30;100.00
70254;BME280;57649;42.968;1.608;2022-09-16T01:51:52;97128.91;;;18.26;100.00
70254;BME280;57649;42.968;1.608;2022-09-16T01:54:33;97130.94;;;18.31;100.00
70254;BME280;57649;42.968;1.608;2022-09-16T01:59:43;97123.31;;;18.21;100.00
70254;BME280;57649;42.968;1.608;2022-09-16T02:03:02;97117.00;;;18.27;100.00
70254;BME280;57649;42.968;1.608;2022-09-16T02:05:13;97111.19;;;18.24;100.00
70254;BME280;57649;42.968;1.608;2022-09-16T02:07:43;97105.56;;;18.25;100.00
70254;BME280;57649;42.968;1.608;2022-09-16T02:10:24;97119.47;;;18.29;100.00
70254;BME280;57649;42.968;1.608;2022-09-16T02:12:53;97116.19;;;18.27;100.00
70254;BME280;57649;42.968;1.608;2022-09-16T02:15:22;97115.94;;;18.28;100.00
70254;BME280;57649;42.968;1.608;2022-09-16T02:17:55;97118.66;;;18.28;100.00
70254;BME280;57649;42.968;1.608;2022-09-16T02:20:24;97120.94;;;18.32;100.00
70254;BME280;57649;42.968;1.608;2022-09-16T02:22:58;97113.31;;;18.22;100.00
70254;BME280;57649;42.968;1.608;2022-09-16T02:25:25;97109.00;;;18.14;100.00
70254;BME280;57649;42.968;1.608;2022-09-16T02:27:53;97114.38;;;18.21;100.00
70254;BME280;57649;42.968;1.608;2022-09-16T02:30:20;97112.69;;;18.20;100.00
70254;BME280;57649;42.968;1.608;2022-09-16T02:32:57;97110.69;;;18.15;100.00
70254;BME280;57649;42.968;1.608;2022-09-16T02:35:25;97109.91;;;18.08;100.00
70254;BME280;57649;42.968;1.608;2022-09-16T02:37:59;97111.25;;;17.99;100.00
70254;BME280;57649;42.968;1.608;2022-09-16T02:40:32;97112.88;;;18.00;100.00
70254;BME280;57649;42.968;1.608;2022-09-16T02:42:59;97106.88;;;17.98;100.00
70254;BME280;57649;42.968;1.608;2022-09-16T02:48:36;97097.41;;;18.07;100.00
70254;BME280;57649;42.968;1.608;2022-09-16T02:51:15;97095.31;;;18.09;100.00
70254;BME280;57649;42.968;1.608;2022-09-16T02:56:22;97092.22;;;18.05;100.00
70254;BME280;57649;42.968;1.608;2022-09-16T02:58:50;97091.09;;;18.13;100.00
70254;BME280;57649;42.968;1.608;2022-09-16T03:01:16;97092.22;;;18.05;100.00
70254;BME280;57649;42.968;1.608;2022-09-16T03:03:43;97091.59;;;18.03;100.00
70254;BME280;57649;42.968;1.608;2022-09-16T03:06:13;97102.09;;;17.93;100.00
70254;BME280;57649;42.968;1.608;2022-09-16T03:08:39;97093.63;;;17.89;100.00
70254;BME280;57649;42.968;1.608;2022-09-16T03:13:58;97096.78;;;17.86;100.00
70254;BME280;57649;42.968;1.608;2022-09-16T03:21:47;97100.09;;;17.82;100.00
70254;BME280;57649;42.968;1.608;2022-09-16T03:24:34;97101.78;;;17.83;99.55
70254;BME280;57649;42.968;1.608;2022-09-16T03:27:13;97102.19;;;17.80;99.98
70254;BME280;57649;42.968;1.608;2022-09-16T03:29:55;97105.19;;;17.72;100.00
70254;BME280;57649;42.968;1.608;2022-09-16T03:32:24;97101.44;;;17.73;100.00
70254;BME280;57649;42.968;1.608;2022-09-16T03:34:57;97103.75;;;17.69;100.00
70254;BME280;57649;42.968;1.608;2022-09-16T03:37:28;97102.88;;;17.50;100.00
70254;BME280;57649;42.968;1.608;2022-09-16T03:39:57;97100.91;;;17.32;100.00
70254;BME280;57649;42.968;1.608;2022-09-16T03:42:24;97093.47;;;17.27;100.00
70254;BME280;57649;42.968;1.608;2022-09-16T03:44:50;97099.41;;;17.36;100.00
70254;BME280;57649;42.968;1.608;2022-09-16T03:47:16;97099.88;;;17.33;100.00
70254;BME280;57649;42.968;1.608;2022-09-16T03:49:42;97097.78;;;17.35;100.00
70254;BME280;57649;42.968;1.608;2022-09-16T03:52:07;97094.56;;;17.45;100.00
70254;BME280;57649;42.968;1.608;2022-09-16T03:54:34;97097.09;;;17.40;100.00
70254;BME280;57649;42.968;1.608;2022-09-16T03:57:00;97093.00;;;17.30;100.00
70254;BME280;57649;42.968;1.608;2022-09-16T03:59:26;97093.41;;;17.34;100.00
70254;BME280;57649;42.968;1.608;2022-09-16T04:01:52;97098.34;;;17.44;100.00
70254;BME280;57649;42.968;1.608;2022-09-16T04:04:17;97092.06;;;17.43;100.00
70254;BME280;57649;42.968;1.608;2022-09-16T04:06:43;97082.50;;;17.47;99.48
70254;BME280;57649;42.968;1.608;2022-09-16T04:09:12;97083.72;;;17.51;100.00
70254;BME280;57649;42.968;1.608;2022-09-16T04:11:38;97087.91;;;17.47;100.00
70254;BME280;57649;42.968;1.608;2022-09-16T04:14:05;97092.53;;;17.40;100.00
70254;BME280;57649;42.968;1.608;2022-09-16T04:16:31;97088.72;;;17.48;100.00
70254;BME280;57649;42.968;1.608;2022-09-16T04:18:56;97082.22;;;17.56;100.00
70254;BME280;57649;42.968;1.608;2022-09-16T04:21:22;97090.28;;;17.62;98.74
70254;BME280;57649;42.968;1.608;2022-09-16T04:23:48;97090.72;;;17.59;100.00
70254;BME280;57649;42.968;1.608;2022-09-16T04:26:14;97090.50;;;17.61;100.00
70254;BME280;57649;42.968;1.608;2022-09-16T04:28:40;97087.00;;;17.54;100.00
70254;BME280;57649;42.968;1.608;2022-09-16T04:31:09;97092.47;;;17.47;100.00
70254;BME280;57649;42.968;1.608;2022-09-16T04:33:35;97095.56;;;17.50;100.00
70254;BME280;57649;42.968;1.608;2022-09-16T04:36:12;97091.94;;;17.63;100.00
70254;BME280;57649;42.968;1.608;2022-09-16T04:38:42;97091.44;;;17.48;100.00
70254;BME280;57649;42.968;1.608;2022-09-16T04:41:19;97085.81;;;17.49;100.00
70254;BME280;57649;42.968;1.608;2022-09-16T04:43:45;97087.84;;;17.54;100.00
70254;BME280;57649;42.968;1.608;2022-09-16T04:46:12;97079.94;;;17.52;100.00
70254;BME280;57649;42.968;1.608;2022-09-16T04:48:37;97092.88;;;17.50;100.00
70254;BME280;57649;42.968;1.608;2022-09-16T04:51:06;97084.13;;;17.48;100.00
70254;BME280;57649;42.968;1.608;2022-09-16T04:53:32;97091.03;;;17.44;100.00
70254;BME280;57649;42.968;1.608;2022-09-16T04:56:11;97085.03;;;17.42;100.00
70254;BME280;57649;42.968;1.608;2022-09-16T04:58:47;97084.97;;;17.49;100.00
70254;BME280;57649;42.968;1.608;2022-09-16T05:01:16;97087.00;;;17.54;100.00
70254;BME280;57649;42.968;1.608;2022-09-16T05:03:43;97086.84;;;17.48;100.00
70254;BME280;57649;42.968;1.608;2022-09-16T05:06:11;97088.66;;;17.55;100.00
70254;BME280;57649;42.968;1.608;2022-09-16T05:08:38;97088.22;;;17.58;100.00
70254;BME280;57649;42.968;1.608;2022-09-16T05:11:12;97092.38;;;17.60;100.00
70254;BME280;57649;42.968;1.608;2022-09-16T05:13:38;97090.44;;;17.67;100.00
70254;BME280;57649;42.968;1.608;2022-09-16T05:16:09;97089.56;;;17.74;100.00
70254;BME280;57649;42.968;1.608;2022-09-16T05:18:36;97089.03;;;17.58;100.00
70254;BME280;57649;42.968;1.608;2022-09-16T05:21:04;97086.34;;;17.58;100.00
70254;BME280;57649;42.968;1.608;2022-09-16T05:23:30;97099.00;;;17.64;100.00
70254;BME280;57649;42.968;1.608;2022-09-16T05:26:04;97098.63;;;17.61;100.00
70254;BME280;57649;42.968;1.608;2022-09-16T05:28:30;97094.84;;;17.62;100.00
70254;BME280;57649;42.968;1.608;2022-09-16T05:31:10;97095.31;;;17.59;100.00
70254;BME280;57649;42.968;1.608;2022-09-16T05:33:36;97093.47;;;17.52;100.00
70254;BME280;57649;42.968;1.608;2022-09-16T05:36:06;97092.88;;;17.50;100.00
70254;BME280;57649;42.968;1.608;2022-09-16T05:38:32;97100.75;;;17.52;100.00
70254;BME280;57649;42.968;1.608;2022-09-16T05:40:59;97098.09;;;17.45;100.00
70254;BME280;57649;42.968;1.608;2022-09-16T05:43:25;97094.63;;;17.38;100.00
70254;BME280;57649;42.968;1.608;2022-09-16T05:45:51;97092.06;;;17.43;100.00
70254;BME280;57649;42.968;1.608;2022-09-16T05:48:17;97097.88;;;17.47;100.00
70254;BME280;57649;42.968;1.608;2022-09-16T05:50:53;97106.06;;;17.65;100.00
70254;BME280;57649;42.968;1.608;2022-09-16T05:53:19;97102.03;;;17.75;100.00
70254;BME280;57649;42.968;1.608;2022-09-16T05:58:24;97106.78;;;17.86;100.00
70254;BME280;57649;42.968;1.608;2022-09-16T06:00:50;97107.16;;;17.89;100.00
70254;BME280;57649;42.968;1.608;2022-09-16T06:03:16;97104.16;;;17.98;100.00
70254;BME280;57649;42.968;1.608;2022-09-16T06:05:41;97104.16;;;17.98;100.00
70254;BME280;57649;42.968;1.608;2022-09-16T06:08:06;97101.19;;;18.06;100.00
70254;BME280;57649;42.968;1.608;2022-09-16T06:10:36;97098.91;;;18.03;100.00
70254;BME280;57649;42.968;1.608;2022-09-16T06:13:02;97092.94;;;17.94;100.00
70254;BME280;57649;42.968;1.608;2022-09-16T06:15:27;97106.13;;;17.84;100.00
70254;BME280;57649;42.968;1.608;2022-09-16T06:17:53;97110.09;;;17.81;100.00
70254;BME280;57649;42.968;1.608;2022-09-16T06:20:19;97097.91;;;17.72;100.00
70254;BME280;57649;42.968;1.608;2022-09-16T06:22:44;97103.41;;;17.84;100.00
70254;BME280;57649;42.968;1.608;2022-09-16T06:25:10;97115.28;;;17.89;100.00
70254;BME280;57649;42.968;1.608;2022-09-16T06:27:36;97102.78;;;17.88;100.00
70254;BME280;57649;42.968;1.608;2022-09-16T06:30:02;97109.06;;;17.82;100.00
70254;BME280;57649;42.968;1.608;2022-09-16T06:32:31;97107.16;;;17.89;100.00
70254;BME280;57649;42.968;1.608;2022-09-16T06:34:57;97094.63;;;17.95;100.00
70254;BME280;57649;42.968;1.608;2022-09-16T06:37:23;97098.78;;;17.91;100.00
70254;BME280;57649;42.968;1.608;2022-09-16T06:39:48;97094.09;;;18.05;100.00
70254;BME280;57649;42.968;1.608;2022-09-16T06:42:13;97094.66;;;18.14;100.00
70254;BME280;57649;42.968;1.608;2022-09-16T06:44:39;97088.06;;;18.03;100.00
70254;BME280;57649;42.968;1.608;2022-09-16T06:47:05;97080.72;;;18.10;100.00
70254;BME280;57649;42.968;1.608;2022-09-16T06:49:30;97089.28;;;18.07;100.00
70254;BME280;57649;42.968;1.608;2022-09-16T06:51:56;97081.69;;;18.16;100.00
70254;BME280;57649;42.968;1.608;2022-09-16T06:54:21;97086.34;;;18.08;100.00
70254;BME280;57649;42.968;1.608;2022-09-16T06:56:47;97085.66;;;18.13;100.00
70254;BME280;57649;42.968;1.608;2022-09-16T06:59:12;97086.03;;;18.17;100.00
70254;BME280;57649;42.968;1.608;2022-09-16T07:01:38;97088.63;;;18.30;100.00
70254;BME280;57649;42.968;1.608;2022-09-16T07:04:06;97085.94;;;18.30;100.00
70254;BME280;57649;42.968;1.608;2022-09-16T07:06:34;97087.88;;;18.41;100.00
70254;BME280;57649;42.968;1.608;2022-09-16T07:09:00;97087.94;;;18.35;100.00
70254;BME280;57649;42.968;1.608;2022-09-16T07:11:25;97082.47;;;18.41;100.00
70254;BME280;57649;42.968;1.608;2022-09-16T07:13:51;97085.72;;;18.50;100.00
70254;BME280;57649;42.968;1.608;2022-09-16T07:16:19;97087.72;;;18.55;100.00
70254;BME280;57649;42.968;1.608;2022-09-16T07:18:45;97090.59;;;18.60;100.00
70254;BME280;57649;42.968;1.608;2022-09-16T07:21:18;97086.72;;;18.67;100.00
70254;BME280;57649;42.968;1.608;2022-09-16T07:23:45;97088.41;;;18.69;100.00
70254;BME280;57649;42.968;1.608;2022-09-16T07:28:38;97103.53;;;18.58;100.00
70254;BME280;57649;42.968;1.608;2022-09-16T07:31:07;97100.88;;;18.70;100.00
70254;BME280;57649;42.968;1.608;2022-09-16T07:33:37;97091.88;;;18.76;100.00
70254;BME280;57649;42.968;1.608;2022-09-16T07:36:05;97101.75;;;18.89;100.00
70254;BME280;57649;42.968;1.608;2022-09-16T07:38:31;97109.69;;;19.02;100.00
70254;BME280;57649;42.968;1.608;2022-09-16T07:41:14;97109.91;;;19.00;99.58
70254;BME280;57649;42.968;1.608;2022-09-16T07:43:40;97110.66;;;19.08;100.00
70254;BME280;57649;42.968;1.608;2022-09-16T07:46:08;97108.31;;;19.11;100.00
70254;BME280;57649;42.968;1.608;2022-09-16T07:48:35;97111.25;;;19.10;99.66
70254;BME280;57649;42.968;1.608;2022-09-16T07:51:06;97121.84;;;18.99;100.00
70254;BME280;57649;42.968;1.608;2022-09-16T07:53:32;97124.22;;;19.08;99.24
70254;BME280;57649;42.968;1.608;2022-09-16T07:56:09;97118.34;;;19.11;100.00
70254;BME280;57649;42.968;1.608;2022-09-16T07:58:35;97126.59;;;19.16;100.00
70254;BME280;57649;42.968;1.608;2022-09-16T08:01:03;97127.69;;;19.15;100.00
70254;BME280;57649;42.968;1.608;2022-09-16T08:03:30;97127.09;;;19.13;100.00
70254;BME280;57649;42.968;1.608;2022-09-16T08:06:00;97132.31;;;19.26;99.59
70254;BME280;57649;42.968;1.608;2022-09-16T08:08:26;97141.28;;;19.27;99.94
70254;BME280;57649;42.968;1.608;2022-09-16T08:10:53;97134.66;;;19.22;97.48
70254;BME280;57649;42.968;1.608;2022-09-16T08:13:19;97132.19;;;19.21;100.00
70254;BME280;57649;42.968;1.608;2022-09-16T08:15:46;97129.03;;;19.36;100.00
70254;BME280;57649;42.968;1.608;2022-09-16T08:18:11;97136.81;;;19.32;100.00
70254;BME280;57649;42.968;1.608;2022-09-16T08:20:37;97141.78;;;19.35;100.00
70254;BME280;57649;42.968;1.608;2022-09-16T08:23:03;97133.34;;;19.43;100.00
70254;BME280;57649;42.968;1.608;2022-09-16T08:25:28;97139.75;;;19.61;99.36
70254;BME280;57649;42.968;1.608;2022-09-16T08:27:53;97141.06;;;19.70;97.94
70254;BME280;57649;42.968;1.608;2022-09-16T08:30:20;97136.63;;;19.76;97.70
70254;BME280;57649;42.968;1.608;2022-09-16T08:32:45;97138.06;;;19.78;97.76
70254;BME280;57649;42.968;1.608;2022-09-16T08:35:11;97140.41;;;19.87;90.57
70254;BME280;57649;42.968;1.608;2022-09-16T08:37:38;97131.69;;;19.85;82.64
70254;BME280;57649;42.968;1.608;2022-09-16T08:40:04;97131.34;;;19.93;86.91
70254;BME280;57649;42.968;1.608;2022-09-16T08:50:38;97139.63;;;20.22;83.30
70254;BME280;57649;42.968;1.608;2022-09-16T08:53:11;97134.28;;;20.38;85.63
70254;BME280;57649;42.968;1.608;2022-09-16T08:55:39;97140.91;;;20.54;81.32
70254;BME280;57649;42.968;1.608;2022-09-16T09:00:41;97137.94;;;20.68;84.05
70254;BME280;57649;42.968;1.608;2022-09-16T09:05:55;97133.69;;;20.60;77.89
70254;BME280;57649;42.968;1.608;2022-09-16T09:14:16;97148.59;;;20.57;81.34
70254;BME280;57649;42.968;1.608;2022-09-16T09:22:57;97154.72;;;19.82;86.85
70254;BME280;57649;42.968;1.608;2022-09-16T09:42:21;97141.03;;;21.52;75.86
70254;BME280;57649;42.968;1.608;2022-09-16T09:50:40;97152.28;;;21.90;74.60
70254;BME280;57649;42.968;1.608;2022-09-16T09:56:27;97137.94;;;21.95;78.56
70254;BME280;57649;42.968;1.608;2022-09-16T10:02:13;97139.03;;;21.48;79.37
70254;BME280;57649;42.968;1.608;2022-09-16T10:04:39;97122.56;;;21.43;76.68
70254;BME280;57649;42.968;1.608;2022-09-16T10:07:05;97130.47;;;22.07;77.34
70254;BME280;57649;42.968;1.608;2022-09-16T10:09:33;97130.38;;;21.68;78.40
70254;BME280;57649;42.968;1.608;2022-09-16T10:12:00;97125.94;;;21.62;78.29
70254;BME280;57649;42.968;1.608;2022-09-16T10:14:34;97120.41;;;22.07;79.02
70254;BME280;57649;42.968;1.608;2022-09-16T10:17:03;97122.41;;;21.95;74.23
70254;BME280;57649;42.968;1.608;2022-09-16T10:19:30;97124.69;;;22.03;75.40
70254;BME280;57649;42.968;1.608;2022-09-16T10:22:16;97107.56;;;22.59;73.86
70254;BME280;57649;42.968;1.608;2022-09-16T10:24:43;97107.13;;;21.77;73.38
70254;BME280;57649;42.968;1.608;2022-09-16T10:27:27;97108.75;;;21.61;76.42
70254;BME280;57649;42.968;1.608;2022-09-16T10:32:48;97121.50;;;20.74;78.43
70254;BME280;57649;42.968;1.608;2022-09-16T10:35:22;97131.56;;;20.50;80.83
70254;BME280;57649;42.968;1.608;2022-09-16T10:37:54;97141.72;;;21.19;78.95
70254;BME280;57649;42.968;1.608;2022-09-16T10:40:20;97136.97;;;20.98;77.54
70254;BME280;57649;42.968;1.608;2022-09-16T10:42:49;97131.47;;;20.57;77.45
70254;BME280;57649;42.968;1.608;2022-09-16T10:45:28;97127.91;;;20.33;78.75
70254;BME280;57649;42.968;1.608;2022-09-16T10:47:57;97136.91;;;20.45;80.20
70254;BME280;57649;42.968;1.608;2022-09-16T10:50:24;97129.69;;;20.15;78.96
70254;BME280;57649;42.968;1.608;2022-09-16T10:52:50;97120.59;;;19.86;80.10
70254;BME280;57649;42.968;1.608;2022-09-16T10:57:46;97117.41;;;19.89;78.76
70254;BME280;57649;42.968;1.608;2022-09-16T11:00:20;97120.22;;;19.83;78.98
70254;BME280;57649;42.968;1.608;2022-09-16T11:03:25;97128.44;;;19.64;80.46
70254;BME280;57649;42.968;1.608;2022-09-16T11:06:23;97138.19;;;19.53;82.50
70254;BME280;57649;42.968;1.608;2022-09-16T11:09:17;97134.25;;;19.37;86.45
70254;BME280;57649;42.968;1.608;2022-09-16T11:14:49;97141.28;;;19.27;87.56
70254;BME280;57649;42.968;1.608;2022-09-16T11:17:31;97131.38;;;19.32;86.57
70254;BME280;57649;42.968;1.608;2022-09-16T11:26:16;97143.91;;;19.33;86.78
70254;BME280;57649;42.968;1.608;2022-09-16T11:34:03;97155.13;;;19.67;84.52
70254;BME280;57649;42.968;1.608;2022-09-16T11:42:26;97154.97;;;20.04;82.85
70254;BME280;57649;42.968;1.608;2022-09-16T11:50:36;97146.69;;;20.58;76.48
70254;BME280;57649;42.968;1.608;2022-09-16T11:55:56;97151.66;;;20.49;77.03
70254;BME280;57649;42.968;1.608;2022-09-16T11:58:45;97143.63;;;20.31;75.58
70254;BME280;57649;42.968;1.608;2022-09-16T12:03:58;97141.03;;;20.12;76.24
70254;BME280;57649;42.968;1.608;2022-09-16T12:06:29;97147.91;;;20.27;76.64
70254;BME280;57649;42.968;1.608;2022-09-16T12:09:11;97148.59;;;20.34;76.44
70254;BME280;57649;42.968;1.608;2022-09-16T12:11:42;97147.88;;;20.03;73.60
70254;BME280;57649;42.968;1.608;2022-09-16T12:14:12;97149.66;;;20.09;76.58
70254;BME280;57649;42.968;1.608;2022-09-16T12:16:47;97133.69;;;20.13;75.07
70254;BME280;57649;42.968;1.608;2022-09-16T12:19:20;97141.66;;;20.26;75.45
70254;BME280;57649;42.968;1.608;2022-09-16T12:22:07;97140.69;;;20.21;75.14
70254;BME280;57649;42.968;1.608;2022-09-16T12:24:45;97150.38;;;20.40;74.43
70254;BME280;57649;42.968;1.608;2022-09-16T12:27:46;97142.34;;;20.33;74.13
70254;BME280;57649;42.968;1.608;2022-09-16T12:30:26;97138.22;;;20.43;74.92
70254;BME280;57649;42.968;1.608;2022-09-16T12:32:59;97136.91;;;20.45;74.00
70254;BME280;57649;42.968;1.608;2022-09-16T12:35:55;97126.50;;;20.54;75.24
70254;BME280;57649;42.968;1.608;2022-09-16T12:38:22;97127.91;;;20.68;73.38
70254;BME280;57649;42.968;1.608;2022-09-16T12:41:02;97126.44;;;20.89;74.31
70254;BME280;57649;42.968;1.608;2022-09-16T12:46:54;97130.19;;;21.00;74.99
70254;BME280;57649;42.968;1.608;2022-09-16T13:00:40;97121.16;;;20.00;76.75
70254;BME280;57649;42.968;1.608;2022-09-16T13:03:20;97111.84;;;19.96;76.12
70254;BME280;57649;42.968;1.608;2022-09-16T13:05:50;97109.25;;;20.25;76.10
70254;BME280;57649;42.968;1.608;2022-09-16T13:08:26;97107.59;;;19.88;76.57
70254;BME280;57649;42.968;1.608;2022-09-16T13:11:00;97111.97;;;20.01;77.20
70254;BME280;57649;42.968;1.608;2022-09-16T13:13:41;97106.16;;;20.09;77.53
70254;BME280;57649;42.968;1.608;2022-09-16T13:16:08;97104.75;;;20.07;77.59
70254;BME280;57649;42.968;1.608;2022-09-16T13:21:28;97102.28;;;20.05;80.33
70254;BME280;57649;42.968;1.608;2022-09-16T13:24:10;97103.13;;;20.06;77.90
70254;BME280;57649;42.968;1.608;2022-09-16T13:26:42;97106.28;;;20.14;77.77
70254;BME280;57649;42.968;1.608;2022-09-16T13:31:56;97084.41;;;20.45;76.98
70254;BME280;57649;42.968;1.608;2022-09-16T13:34:22;97080.59;;;20.69;76.02
70254;BME280;57649;42.968;1.608;2022-09-16T13:36:48;97086.59;;;20.83;75.64
70254;BME280;57649;42.968;1.608;2022-09-16T13:39:27;97084.72;;;21.12;73.96
70254;BME280;57649;42.968;1.608;2022-09-16T13:41:53;97092.72;;;20.90;72.61
70254;BME280;57649;42.968;1.608;2022-09-16T13:47:14;97092.97;;;20.89;73.52
70254;BME280;57649;42.968;1.608;2022-09-16T13:49:45;97077.09;;;20.98;72.07
70254;BME280;57649;42.968;1.608;2022-09-16T13:52:18;97078.94;;;20.56;75.93
70254;BME280;57649;42.968;1.608;2022-09-16T13:54:53;97086.25;;;20.80;76.71
70254;BME280;57649;42.968;1.608;2022-09-16T13:57:48;97091.28;;;21.00;73.85
70254;BME280;57649;42.968;1.608;2022-09-16T14:11:16;97106.88;;;20.52;77.91
70254;BME280;57649;42.968;1.608;2022-09-16T14:13:53;97091.53;;;19.98;78.69
70254;BME280;57649;42.968;1.608;2022-09-16T14:16:22;97097.31;;;19.78;81.12
70254;BME280;57649;42.968;1.608;2022-09-16T14:19:00;97086.09;;;19.75;79.59
70254;BME280;57649;42.968;1.608;2022-09-16T14:21:28;97090.75;;;19.56;77.99
70254;BME280;57649;42.968;1.608;2022-09-16T14:23:53;97077.28;;;19.61;80.05
70254;BME280;57649;42.968;1.608;2022-09-16T14:26:21;97081.09;;;19.60;77.98
70254;BME280;57649;42.968;1.608;2022-09-16T14:28:47;97075.16;;;19.51;79.49
70254;BME280;57649;42.968;1.608;2022-09-16T14:31:20;97084.94;;;19.40;77.63
70254;BME280;57649;42.968;1.608;2022-09-16T14:33:49;97072.75;;;19.73;79.68
70254;BME280;57649;42.968;1.608;2022-09-16T14:36:23;97080.06;;;19.85;76.90
70254;BME280;57649;42.968;1.608;2022-09-16T14:38:55;97083.03;;;19.95;78.48
70254;BME280;57649;42.968;1.608;2022-09-16T14:41:35;97072.94;;;19.72;77.28
70254;BME280;57649;42.968;1.608;2022-09-16T14:47:20;97063.78;;;19.85;77.89
70254;BME280;57649;42.968;1.608;2022-09-16T14:50:00;97068.03;;;20.04;77.60
70254;BME280;57649;42.968;1.608;2022-09-16T14:52:30;97079.38;;;20.01;76.50
70254;BME280;57649;42.968;1.608;2022-09-16T14:54:56;97066.38;;;20.15;77.47
70254;BME280;57649;42.968;1.608;2022-09-16T14:57:24;97066.25;;;20.33;76.55
70254;BME280;57649;42.968;1.608;2022-09-16T14:59:55;97069.41;;;20.42;76.23
70254;BME280;57649;42.968;1.608;2022-09-16T15:07:36;97055.75;;;20.13;73.49
70254;BME280;57649;42.968;1.608;2022-09-16T15:10:13;97071.91;;;20.32;73.33
70254;BME280;57649;42.968;1.608;2022-09-16T15:13:09;97052.97;;;20.49;72.39
70254;BME280;57649;42.968;1.608;2022-09-16T15:15:37;97058.84;;;20.69;71.20
70254;BME280;57649;42.968;1.608;2022-09-16T15:18:13;97060.84;;;20.74;69.80
70254;BME280;57649;42.968;1.608;2022-09-16T15:20:49;97053.47;;;20.86;69.89
70254;BME280;57649;42.968;1.608;2022-09-16T15:23:20;97051.50;;;20.99;67.93
70254;BME280;57649;42.968;1.608;2022-09-16T15:29:00;97034.72;;;21.02;68.85
70254;BME280;57649;42.968;1.608;2022-09-16T15:31:37;97037.06;;;21.27;67.75
70254;BME280;57649;42.968;1.608;2022-09-16T15:36:57;97029.50;;;21.00;69.31
70254;BME280;57649;42.968;1.608;2022-09-16T15:39:36;97020.06;;;21.20;67.61
70254;BME280;57649;42.968;1.608;2022-09-16T15:42:15;97019.88;;;21.09;67.89
70254;BME280;57649;42.968;1.608;2022-09-16T15:44:46;97021.81;;;21.26;68.04
70254;BME280;57649;42.968;1.608;2022-09-16T15:47:27;97023.22;;;21.28;68.38
70254;BME280;57649;42.968;1.608;2022-09-16T15:50:01;97029.88;;;21.21;68.24
70254;BME280;57649;42.968;1.608;2022-09-16T15:52:27;97030.72;;;21.21;68.14
70254;BME280;57649;42.968;1.608;2022-09-16T15:54:59;97021.34;;;21.00;67.70
70254;BME280;57649;42.968;1.608;2022-09-16T15:59:56;97022.84;;;21.08;67.14
70254;BME280;57649;42.968;1.608;2022-09-16T16:05:19;97009.81;;;21.10;66.47
70254;BME280;57649;42.968;1.608;2022-09-16T16:07:48;97010.31;;;21.07;66.36
70254;BME280;57649;42.968;1.608;2022-09-16T16:12:43;97008.19;;;21.43;65.62
70254;BME280;57649;42.968;1.608;2022-09-16T16:15:15;97020.63;;;21.50;64.44
70254;BME280;57649;42.968;1.608;2022-09-16T16:17:41;97009.31;;;21.59;64.72
70254;BME280;57649;42.968;1.608;2022-09-16T16:20:07;97014.31;;;21.50;64.92
70254;BME280;57649;42.968;1.608;2022-09-16T16:22:33;97006.91;;;21.62;65.04
70254;BME280;57649;42.968;1.608;2022-09-16T16:24:59;97007.63;;;21.24;65.36
70254;BME280;57649;42.968;1.608;2022-09-16T16:27:24;97012.81;;;21.42;65.80
70254;BME280;57649;42.968;1.608;2022-09-16T16:29:50;97010.78;;;21.49;65.37
70254;BME280;57649;42.968;1.608;2022-09-16T16:32:16;97007.97;;;21.61;64.96
70254;BME280;57649;42.968;1.608;2022-09-16T16:34:43;97007.25;;;21.66;63.87